Gosnold, Massachusetts
Current Conditions -  °F | °C
As of 6:53 PM on Friday 19 Dec 2014 (Local Time) from KMVY Reporting Station
Overcast Overcast  
Wind Chill: 30°   Ceiling: 3300
Heat Index: 34°   Visibility: 10mi
Dew Point: 19°   Wind: 5mph
Humidity: 54%   Direction: 340°NNW
Pressure: 30.06"   Gusts: NA
Location:  41.4796°N, 70.7571°W
Report Text: KMVY 192353Z AUTO 34004KT 10SM OVC033 01/M07 A3006 RMK AO2 SLP178 T00111072 10033 20011 53022
Loading
Personal Weather Stations






























Interactive Weather Map New forecast layout! Learn more

10-Day Weather Forecast

Advertisements
Track Severe Weather on mobile